Oxdrift, Canada
Current Conditions -  °F | °C
As of 2:00 AM on Friday 28 Nov 2014 (Local Time) from CYHD Reporting Station
Clear Clear  
Wind Chill: -28°   Ceiling: Unl
Heat Index: -19°   Visibility: 9mi
Dew Point: -22°   Wind: 9mph
Humidity: 78%   Direction: 200°SSW
Pressure: 30.11"   Gusts: NA
Location:  49.82°N, 92.98°W
Report Text: CYHD 280800Z AUTO 20008KT 9SM CLR M19/M22 A3011 RMK SLP241
Loading
Personal Weather Stations






























Interactive Weather Map New forecast layout! Learn more

10-Day Weather Forecast

Advertisements
Track Severe Weather on mobile